createdAt,value
2022-07-29T00:00:01.839Z,2.13
2022-07-29T00:02:29.327Z,2.25
2022-07-29T00:04:55.971Z,2.00
2022-07-29T00:07:22.609Z,2.30
2022-07-29T00:09:50.786Z,2.17
2022-07-29T00:12:26.528Z,2.03
2022-07-29T00:14:55.370Z,2.30
2022-07-29T00:17:22.430Z,2.00
2022-07-29T00:19:48.947Z,2.35
2022-07-29T00:22:15.514Z,1.98
2022-07-29T00:24:42.253Z,2.20
2022-07-29T00:27:08.830Z,2.17
2022-07-29T00:29:35.624Z,2.30
2022-07-29T00:32:03.278Z,2.20
2022-07-29T00:34:48.354Z,2.30
2022-07-29T00:37:14.923Z,2.10
2022-07-29T00:39:41.518Z,2.03
2022-07-29T00:42:08.787Z,2.25
2022-07-29T00:44:42.524Z,2.20
2022-07-29T00:47:11.522Z,2.28
2022-07-29T00:49:41.030Z,2.22
2022-07-29T00:52:10.350Z,2.00
2022-07-29T00:54:44.042Z,2.13
2022-07-29T00:57:13.088Z,2.60
2022-07-29T00:59:40.329Z,2.15
2022-07-29T01:02:07.010Z,2.50
2022-07-29T01:04:34.322Z,2.30
2022-07-29T01:07:05.498Z,2.00
2022-07-29T01:09:46.251Z,2.20
2022-07-29T01:12:26.634Z,2.25
2022-07-29T01:14:56.497Z,2.30
2022-07-29T01:18:06.568Z,2.13
2022-07-29T01:20:42.390Z,2.03
2022-07-29T01:23:48.828Z,1.95
2022-07-29T01:26:40.345Z,2.35
2022-07-29T01:29:42.376Z,2.40
2022-07-29T01:32:28.282Z,2.30
2022-07-29T01:35:27.258Z,2.33
2022-07-29T01:38:01.413Z,2.38
2022-07-29T01:40:47.536Z,2.35
2022-07-29T01:43:19.663Z,2.57
2022-07-29T01:45:58.684Z,2.50
2022-07-29T01:48:40.444Z,2.30
2022-07-29T01:51:36.806Z,2.35
2022-07-29T01:54:28.339Z,2.00
2022-07-29T01:56:59.579Z,2.00
2022-07-29T01:59:27.150Z,2.03
2022-07-29T02:01:58.145Z,2.30
2022-07-29T02:04:29.998Z,2.33
2022-07-29T02:07:02.632Z,2.30
2022-07-29T02:09:31.330Z,2.00
2022-07-29T02:14:48.377Z,2.33
2022-07-29T02:17:25.837Z,2.40
2022-07-29T02:19:58.343Z,2.53
2022-07-29T02:22:29.704Z,2.28
2022-07-29T02:24:58.057Z,2.70
2022-07-29T02:27:28.146Z,2.17
2022-07-29T02:29:59.445Z,2.42
2022-07-29T02:32:28.206Z,1.98
2022-07-29T02:34:56.550Z,2.33
2022-07-29T02:37:25.863Z,2.05
2022-07-29T02:39:55.839Z,2.50
2022-07-29T02:42:27.398Z,2.90
2022-07-29T02:44:54.176Z,2.05
2022-07-29T02:47:20.675Z,2.30
2022-07-29T02:50:05.243Z,2.13
2022-07-29T02:52:42.835Z,1.98
2022-07-29T02:55:26.363Z,2.50
2022-07-29T02:58:02.706Z,2.38
2022-07-29T03:00:32.260Z,2.20
2022-07-29T03:03:04.863Z,2.03
2022-07-29T03:05:32.374Z,2.40
2022-07-29T03:08:05.937Z,2.42
2022-07-29T03:10:34.056Z,2.25
2022-07-29T03:13:02.102Z,2.28
2022-07-29T03:15:30.338Z,2.50
2022-07-29T03:17:57.712Z,2.22
2022-07-29T03:20:26.388Z,2.45
2022-07-29T03:22:53.069Z,2.30
2022-07-29T03:25:21.242Z,2.53
2022-07-29T03:27:49.110Z,2.88
2022-07-29T03:30:18.306Z,2.00
2022-07-29T03:32:52.254Z,2.30
2022-07-29T03:35:20.516Z,2.10
2022-07-29T03:37:47.371Z,2.13
2022-07-29T03:40:23.138Z,2.35
2022-07-29T03:42:54.111Z,2.38
2022-07-29T03:45:22.385Z,2.45
2022-07-29T03:48:00.374Z,2.50
2022-07-29T03:50:31.506Z,2.28
2022-07-29T03:52:59.077Z,1.88
2022-07-29T03:55:29.139Z,2.20
2022-07-29T03:57:58.153Z,2.00
2022-07-29T04:00:27.740Z,2.75
2022-07-29T04:02:54.330Z,2.28
2022-07-29T04:05:21.115Z,2.25
2022-07-29T04:07:50.709Z,2.15
2022-07-29T04:10:30.680Z,2.17
2022-07-29T04:13:00.630Z,2.10
2022-07-29T04:15:30.968Z,1.98
2022-07-29T04:17:59.335Z,2.58
2022-07-29T04:20:26.629Z,2.53
2022-07-29T04:22:53.141Z,2.10
2022-07-29T04:25:19.646Z,2.20
2022-07-29T04:28:01.467Z,2.33
2022-07-29T04:30:29.035Z,2.40
2022-07-29T04:32:55.623Z,2.38
2022-07-29T04:35:22.138Z,2.30
2022-07-29T04:37:48.758Z,2.78
2022-07-29T04:40:15.827Z,2.47
2022-07-29T04:42:46.489Z,2.13
2022-07-29T04:45:14.122Z,2.30
2022-07-29T04:47:41.224Z,2.70
2022-07-29T04:50:10.001Z,2.65
2022-07-29T04:52:36.961Z,2.67
2022-07-29T04:55:05.999Z,3.45
2022-07-29T04:57:33.331Z,3.90
2022-07-29T05:00:00.012Z,2.90
2022-07-29T05:02:26.638Z,2.75
2022-07-29T05:04:53.276Z,2.35
2022-07-29T05:07:19.850Z,2.53
2022-07-29T05:09:46.367Z,2.70
2022-07-29T05:12:13.010Z,2.60
2022-07-29T05:14:39.628Z,2.55
2022-07-29T05:17:06.331Z,3.78
2022-07-29T05:19:32.902Z,3.20
2022-07-29T05:22:00.897Z,2.63
2022-07-29T05:24:27.447Z,2.58
2022-07-29T05:26:53.979Z,2.58
2022-07-29T05:29:44.539Z,2.42
2022-07-29T05:32:07.887Z,2.60
2022-07-29T05:34:34.739Z,2.80
2022-07-29T05:37:01.315Z,2.60
2022-07-29T05:39:48.303Z,2.47
2022-07-29T05:42:14.640Z,2.40
2022-07-29T05:44:41.287Z,2.92
2022-07-29T05:47:07.785Z,2.72
2022-07-29T05:49:34.411Z,2.80
2022-07-29T05:52:01.064Z,3.22
2022-07-29T05:54:27.667Z,2.85
2022-07-29T05:56:54.227Z,2.53
2022-07-29T05:59:20.726Z,2.38
2022-07-29T06:01:47.519Z,2.75
2022-07-29T06:04:14.762Z,2.95
2022-07-29T06:06:41.496Z,2.95
2022-07-29T06:09:12.437Z,2.90
2022-07-29T06:11:39.213Z,5.10
2022-07-29T06:14:06.055Z,4.00
2022-07-29T06:16:32.751Z,3.65
2022-07-29T06:18:59.536Z,3.35
2022-07-29T06:21:26.070Z,3.53
2022-07-29T06:23:52.630Z,3.35
2022-07-29T06:26:19.161Z,3.47
2022-07-29T06:28:57.457Z,3.03
2022-07-29T06:31:24.073Z,3.55
2022-07-29T06:33:50.771Z,2.88
2022-07-29T06:36:17.375Z,3.70
2022-07-29T06:38:49.190Z,3.72
2022-07-29T06:41:18.854Z,4.28
2022-07-29T06:43:52.571Z,4.00
2022-07-29T06:46:23.750Z,3.33
2022-07-29T06:48:53.011Z,4.50
2022-07-29T06:51:22.676Z,3.25
2022-07-29T06:54:00.423Z,2.92
2022-07-29T06:56:32.443Z,2.65
2022-07-29T06:59:06.309Z,2.80
2022-07-29T07:01:33.033Z,3.17
2022-07-29T07:03:59.714Z,3.38
2022-07-29T07:06:26.253Z,3.38
2022-07-29T07:08:52.828Z,3.20
2022-07-29T07:11:19.483Z,4.47
2022-07-29T07:13:46.049Z,6.32
2022-07-29T07:16:12.657Z,5.93
2022-07-29T07:18:39.228Z,11.10
2022-07-29T07:21:06.603Z,6.15
2022-07-29T07:23:33.208Z,4.60
2022-07-29T07:25:59.699Z,4.60
2022-07-29T07:28:26.275Z,3.50
2022-07-29T07:30:53.100Z,3.03
2022-07-29T07:33:20.202Z,3.47
2022-07-29T07:35:47.193Z,3.55
2022-07-29T07:38:14.432Z,7.90
2022-07-29T07:40:42.157Z,5.65
2022-07-29T07:43:08.868Z,5.05
2022-07-29T07:45:37.902Z,3.42
2022-07-29T07:48:05.287Z,3.50
2022-07-29T07:50:31.853Z,2.97
2022-07-29T07:52:58.922Z,2.72
2022-07-29T07:55:27.059Z,2.80
2022-07-29T07:57:57.164Z,3.13
2022-07-29T08:00:24.059Z,2.53
2022-07-29T08:02:51.620Z,3.30
2022-07-29T08:05:19.217Z,2.90
2022-07-29T08:07:48.764Z,3.22
2022-07-29T08:10:36.876Z,4.80
2022-07-29T08:13:09.204Z,3.22
2022-07-29T08:15:36.213Z,3.15
2022-07-29T08:18:08.441Z,3.42
2022-07-29T08:20:38.869Z,3.20
2022-07-29T08:23:09.544Z,3.55
2022-07-29T08:25:40.274Z,2.92
2022-07-29T08:28:07.178Z,2.83
2022-07-29T08:30:34.363Z,2.50
2022-07-29T08:33:01.007Z,2.92
2022-07-29T08:35:32.133Z,2.85
2022-07-29T08:38:01.515Z,3.30
2022-07-29T08:40:32.235Z,2.83
2022-07-29T08:43:06.549Z,3.42
2022-07-29T08:45:48.130Z,3.58
2022-07-29T08:48:19.119Z,3.17
2022-07-29T08:50:48.052Z,2.85
2022-07-29T08:53:18.860Z,3.10
2022-07-29T08:55:50.847Z,3.20
2022-07-29T08:58:22.985Z,3.00
2022-07-29T09:00:56.795Z,2.97
2022-07-29T09:03:32.823Z,3.20
2022-07-29T09:06:00.485Z,3.58
2022-07-29T09:08:27.598Z,2.63
2022-07-29T09:10:56.522Z,2.80
2022-07-29T09:13:23.936Z,3.00
2022-07-29T09:15:50.460Z,2.53
2022-07-29T09:18:37.478Z,2.50
2022-07-29T09:21:24.655Z,3.28
2022-07-29T09:24:11.066Z,3.78
2022-07-29T09:26:43.889Z,4.00
2022-07-29T09:29:19.018Z,2.97
2022-07-29T09:31:52.282Z,4.18
2022-07-29T09:34:32.026Z,2.45
2022-07-29T09:36:59.049Z,3.75
2022-07-29T09:39:37.233Z,3.47
2022-07-29T09:42:07.086Z,3.70
2022-07-29T09:44:49.759Z,3.67
2022-07-29T09:47:22.579Z,4.20
2022-07-29T09:50:00.705Z,4.00
2022-07-29T09:52:29.805Z,3.50
2022-07-29T09:55:13.554Z,4.05
2022-07-29T09:57:46.080Z,3.42
2022-07-29T10:00:23.826Z,4.07
2022-07-29T10:02:51.655Z,3.78
2022-07-29T10:05:25.050Z,3.70
2022-07-29T10:07:57.190Z,4.53
2022-07-29T10:10:36.799Z,3.90
2022-07-29T10:13:16.120Z,4.07
2022-07-29T10:15:46.094Z,3.85
2022-07-29T10:18:18.019Z,3.60
2022-07-29T10:20:44.586Z,4.15
2022-07-29T10:23:11.212Z,4.07
2022-07-29T10:25:37.892Z,3.60
2022-07-29T10:28:06.913Z,4.00
2022-07-29T10:30:34.093Z,3.88
2022-07-29T10:33:54.642Z,5.22
2022-07-29T10:36:55.672Z,4.32
2022-07-29T10:39:44.492Z,4.10
2022-07-29T10:42:34.193Z,4.00
2022-07-29T10:45:04.616Z,4.70
2022-07-29T10:47:32.392Z,3.90
2022-07-29T10:50:06.504Z,4.20
2022-07-29T10:52:53.568Z,4.07
2022-07-29T10:55:34.392Z,4.43
2022-07-29T10:58:24.647Z,4.68
2022-07-29T11:00:54.619Z,4.18
2022-07-29T11:03:41.639Z,4.55
2022-07-29T11:06:17.007Z,4.13
2022-07-29T11:08:44.771Z,4.55
2022-07-29T11:11:29.515Z,4.10
2022-07-29T11:13:56.972Z,4.38
2022-07-29T11:16:24.919Z,4.43
2022-07-29T11:19:29.989Z,4.93
2022-07-29T11:21:58.746Z,10.25
2022-07-29T11:24:32.911Z,6.03
2022-07-29T11:30:06.973Z,3.97
2022-07-29T11:32:44.662Z,4.40
2022-07-29T11:35:37.353Z,4.43
2022-07-29T11:38:31.806Z,4.20
2022-07-29T11:41:30.031Z,4.50
2022-07-29T11:44:01.266Z,4.40
2022-07-29T11:46:51.278Z,4.30
2022-07-29T11:49:32.183Z,4.22
2022-07-29T11:52:02.539Z,4.53
2022-07-29T11:54:57.223Z,4.40
2022-07-29T11:57:22.409Z,3.92
2022-07-29T11:59:49.640Z,4.05
2022-07-29T12:02:37.163Z,4.22
2022-07-29T12:05:10.454Z,4.13
2022-07-29T12:07:41.146Z,4.05
2022-07-29T12:10:20.189Z,4.45
2022-07-29T12:12:57.035Z,4.57
2022-07-29T12:15:25.027Z,4.20
2022-07-29T12:18:19.415Z,4.30
2022-07-29T12:20:59.354Z,4.57
2022-07-29T12:23:34.730Z,4.43
2022-07-29T12:26:07.531Z,6.75
2022-07-29T12:31:06.605Z,5.65
2022-07-29T12:33:35.809Z,4.07
2022-07-29T12:36:10.321Z,4.25
2022-07-29T12:41:08.000Z,4.53
2022-07-29T12:43:34.580Z,4.05
2022-07-29T12:46:15.908Z,4.15
2022-07-29T12:48:44.799Z,4.40
2022-07-29T12:51:15.178Z,4.88
2022-07-29T12:53:42.366Z,4.22
2022-07-29T12:59:23.869Z,4.45
2022-07-29T13:01:52.928Z,3.90
2022-07-29T13:04:31.351Z,7.05
2022-07-29T13:07:08.179Z,4.63
2022-07-29T13:09:44.485Z,4.65
2022-07-29T13:12:14.329Z,4.88
2022-07-29T13:14:47.160Z,4.57
2022-07-29T13:17:28.627Z,4.20
2022-07-29T13:20:13.544Z,4.10
2022-07-29T13:22:48.224Z,4.15
2022-07-29T13:25:15.239Z,4.68
2022-07-29T13:27:41.883Z,4.78
2022-07-29T13:30:10.564Z,5.85
2022-07-29T13:32:38.567Z,7.60
2022-07-29T13:35:08.900Z,4.65
2022-07-29T13:37:39.329Z,4.75
2022-07-29T13:40:11.423Z,4.30
2022-07-29T13:42:38.182Z,4.13
2022-07-29T13:45:07.454Z,4.65
2022-07-29T13:47:35.110Z,4.35
2022-07-29T13:50:02.896Z,4.53
2022-07-29T13:52:29.901Z,4.53
2022-07-29T13:54:56.949Z,5.20
2022-07-29T13:57:23.610Z,6.43
2022-07-29T13:59:54.156Z,4.00
2022-07-29T14:02:25.813Z,4.03
2022-07-29T14:04:54.397Z,5.20
2022-07-29T14:07:21.114Z,4.20
2022-07-29T14:09:47.634Z,4.30
2022-07-29T14:12:14.195Z,4.22
2022-07-29T14:14:40.892Z,4.72
2022-07-29T14:17:07.916Z,4.72
2022-07-29T14:19:39.704Z,4.70
2022-07-29T14:22:08.675Z,6.35
2022-07-29T14:24:37.635Z,21.15
2022-07-29T14:27:05.840Z,5.80
2022-07-29T14:29:37.083Z,5.32
2022-07-29T14:32:08.037Z,4.70
2022-07-29T14:34:36.797Z,4.70
2022-07-29T14:37:06.419Z,5.00
2022-07-29T14:39:39.339Z,4.53
2022-07-29T14:42:11.648Z,4.53
2022-07-29T14:44:39.490Z,5.82
2022-07-29T14:47:07.701Z,7.32
2022-07-29T14:49:35.738Z,4.25
2022-07-29T14:52:02.300Z,4.15
2022-07-29T14:54:28.895Z,4.93
2022-07-29T14:56:58.286Z,4.72
2022-07-29T14:59:25.920Z,4.60
2022-07-29T15:01:52.638Z,4.13
2022-07-29T15:04:19.177Z,4.30
2022-07-29T15:06:46.192Z,5.05
2022-07-29T15:09:12.828Z,4.35
2022-07-29T15:11:39.445Z,4.60
2022-07-29T15:14:07.154Z,4.40
2022-07-29T15:16:36.854Z,4.35
2022-07-29T15:19:05.083Z,4.80
2022-07-29T15:21:31.593Z,4.43
2022-07-29T15:23:58.167Z,4.70
2022-07-29T15:26:24.669Z,4.85
2022-07-29T15:28:51.905Z,4.47
2022-07-29T15:31:19.763Z,4.68
2022-07-29T15:33:46.439Z,4.25
2022-07-29T15:36:25.444Z,4.93
2022-07-29T15:38:59.898Z,4.57
2022-07-29T15:41:26.505Z,4.63
2022-07-29T15:43:53.084Z,4.60
2022-07-29T15:46:39.694Z,4.60
2022-07-29T15:49:07.717Z,4.43
2022-07-29T15:51:34.921Z,4.50
2022-07-29T15:54:03.626Z,4.57
2022-07-29T15:56:31.553Z,4.35
2022-07-29T15:58:58.613Z,4.75
2022-07-29T16:01:25.544Z,4.35
2022-07-29T16:03:52.268Z,4.40
2022-07-29T16:06:19.337Z,4.82
2022-07-29T16:08:45.898Z,4.35
2022-07-29T16:11:12.426Z,4.53
2022-07-29T16:13:38.942Z,4.45
2022-07-29T16:16:05.468Z,4.35
2022-07-29T16:18:32.028Z,5.40
2022-07-29T16:20:58.728Z,4.47
2022-07-29T16:23:25.376Z,4.97
2022-07-29T16:26:00.565Z,4.43
2022-07-29T16:28:28.964Z,4.63
2022-07-29T16:30:55.602Z,4.88
2022-07-29T16:33:22.141Z,4.75
2022-07-29T16:35:48.684Z,4.95
2022-07-29T16:38:15.815Z,4.53
2022-07-29T16:40:42.724Z,4.32
2022-07-29T16:43:09.735Z,4.57
2022-07-29T16:45:42.569Z,4.50
2022-07-29T16:48:17.933Z,4.43
2022-07-29T16:50:45.331Z,4.63
2022-07-29T16:53:11.876Z,4.20
2022-07-29T16:55:38.651Z,4.35
2022-07-29T16:58:09.403Z,4.30
2022-07-29T17:00:36.218Z,4.30
2022-07-29T17:03:02.831Z,4.22
2022-07-29T17:05:29.484Z,4.43
2022-07-29T17:08:16.039Z,3.97
2022-07-29T17:10:42.571Z,3.90
2022-07-29T17:13:09.298Z,4.32
2022-07-29T17:15:36.627Z,4.10
2022-07-29T17:18:12.341Z,4.07
2022-07-29T17:20:41.300Z,4.15
2022-07-29T17:23:07.839Z,4.07
2022-07-29T17:25:34.410Z,4.35
2022-07-29T17:28:01.474Z,4.40
2022-07-29T17:30:29.291Z,4.78
2022-07-29T17:32:55.866Z,4.03
2022-07-29T17:35:41.205Z,4.70
2022-07-29T17:38:07.856Z,4.72
2022-07-29T17:40:34.413Z,4.75
2022-07-29T17:43:00.961Z,4.55
2022-07-29T17:45:49.066Z,4.15
2022-07-29T17:48:14.252Z,4.30
2022-07-29T17:50:40.868Z,4.30
2022-07-29T17:53:09.601Z,4.35
2022-07-29T17:55:45.281Z,4.43
2022-07-29T17:58:12.377Z,4.18
2022-07-29T18:00:39.226Z,3.30
2022-07-29T18:03:06.467Z,4.20
2022-07-29T18:05:33.444Z,3.97
2022-07-29T18:08:00.056Z,4.50
2022-07-29T18:10:26.862Z,4.55
2022-07-29T18:12:53.550Z,4.90
2022-07-29T18:15:20.254Z,4.13
2022-07-29T18:17:57.046Z,3.75
2022-07-29T18:20:28.121Z,3.70
2022-07-29T18:22:54.767Z,3.90
2022-07-29T18:25:22.001Z,3.17
2022-07-29T18:27:48.555Z,3.15
2022-07-29T18:30:15.484Z,3.13
2022-07-29T18:32:54.272Z,4.00
2022-07-29T18:35:26.500Z,3.60
2022-07-29T18:38:01.759Z,3.05
2022-07-29T18:40:29.990Z,3.30
2022-07-29T18:42:56.986Z,4.10
2022-07-29T18:45:28.221Z,2.90
2022-07-29T18:47:55.062Z,3.70
2022-07-29T18:50:28.822Z,2.50
2022-07-29T18:52:58.657Z,2.90
2022-07-29T18:55:26.430Z,3.53
2022-07-29T18:57:55.806Z,3.72
2022-07-29T19:00:25.232Z,3.50
2022-07-29T19:02:53.218Z,2.85
2022-07-29T19:05:21.296Z,3.42
2022-07-29T19:07:47.964Z,3.95
2022-07-29T19:10:14.673Z,3.47
2022-07-29T19:12:41.266Z,2.92
2022-07-29T19:15:10.224Z,2.53
2022-07-29T19:17:36.764Z,2.88
2022-07-29T19:20:04.537Z,3.17
2022-07-29T19:22:33.893Z,2.72
2022-07-29T19:25:00.496Z,3.92
2022-07-29T19:27:27.011Z,2.70
2022-07-29T19:29:56.638Z,3.00
2022-07-29T19:32:26.082Z,2.90
2022-07-29T19:35:11.545Z,3.05
2022-07-29T19:37:38.071Z,2.83
2022-07-29T19:40:06.395Z,3.72
2022-07-29T19:42:33.572Z,3.25
2022-07-29T19:45:00.121Z,2.83
2022-07-29T19:47:26.813Z,2.90
2022-07-29T19:49:53.355Z,2.72
2022-07-29T19:52:21.369Z,2.47
2022-07-29T19:54:48.082Z,2.85
2022-07-29T19:57:14.638Z,2.97
2022-07-29T19:59:41.376Z,2.78
2022-07-29T20:02:10.804Z,3.00
2022-07-29T20:04:37.844Z,3.50
2022-07-29T20:07:06.054Z,2.83
2022-07-29T20:09:33.085Z,2.90
2022-07-29T20:11:59.707Z,3.60
2022-07-29T20:14:26.234Z,2.85
2022-07-29T20:16:54.243Z,2.75
2022-07-29T20:19:21.024Z,3.05
2022-07-29T20:21:47.680Z,3.10
2022-07-29T20:24:14.279Z,3.45
2022-07-29T20:26:40.791Z,3.92
2022-07-29T20:29:07.367Z,3.10
2022-07-29T20:31:34.027Z,3.53
2022-07-29T20:34:01.844Z,3.00
2022-07-29T20:36:28.936Z,3.28
2022-07-29T20:38:56.647Z,3.30
2022-07-29T20:41:23.378Z,2.92
2022-07-29T20:43:50.093Z,3.20
2022-07-29T20:46:18.573Z,3.40
2022-07-29T20:48:46.866Z,3.03
2022-07-29T20:51:14.658Z,3.00
2022-07-29T20:53:41.419Z,3.15
2022-07-29T20:56:08.575Z,2.63
2022-07-29T20:58:36.243Z,3.17
2022-07-29T21:01:03.832Z,3.45
2022-07-29T21:03:30.724Z,3.05
2022-07-29T21:05:57.312Z,3.28
2022-07-29T21:08:24.093Z,2.70
2022-07-29T21:10:50.679Z,2.88
2022-07-29T21:13:18.551Z,3.17
2022-07-29T21:15:49.124Z,2.95
2022-07-29T21:18:32.832Z,2.88
2022-07-29T21:21:04.545Z,2.80
2022-07-29T21:23:31.163Z,2.95
2022-07-29T21:25:58.198Z,3.08
2022-07-29T21:28:27.689Z,3.13
2022-07-29T21:30:57.160Z,3.30
2022-07-29T21:33:25.545Z,2.90
2022-07-29T21:36:20.203Z,3.38
2022-07-29T21:41:06.773Z,2.90
2022-07-29T21:43:33.666Z,3.30
2022-07-29T21:46:00.523Z,2.80
2022-07-29T21:48:28.699Z,2.95
2022-07-29T21:50:56.299Z,2.63
2022-07-29T21:53:26.743Z,3.00
2022-07-29T21:55:54.273Z,3.15
2022-07-29T21:58:22.850Z,3.00
2022-07-29T22:00:49.512Z,2.80
2022-07-29T22:03:16.440Z,2.95
2022-07-29T22:05:44.063Z,3.40
2022-07-29T22:08:10.831Z,3.25
2022-07-29T22:10:37.518Z,3.20
2022-07-29T22:13:04.246Z,3.13
2022-07-29T22:15:31.316Z,3.35
2022-07-29T22:17:58.434Z,3.63
2022-07-29T22:20:25.460Z,3.25
2022-07-29T22:22:52.773Z,3.45
2022-07-29T22:25:20.226Z,3.28
2022-07-29T22:27:46.862Z,2.90
2022-07-29T22:30:14.250Z,4.10
2022-07-29T22:32:41.448Z,3.38
2022-07-29T22:35:08.725Z,3.15
2022-07-29T22:37:35.541Z,3.65
2022-07-29T22:40:02.328Z,3.60
2022-07-29T22:42:28.983Z,3.35
2022-07-29T22:44:55.529Z,3.42
2022-07-29T22:47:39.814Z,3.45
2022-07-29T22:50:08.967Z,3.20
2022-07-29T22:52:35.633Z,3.35
2022-07-29T22:55:04.150Z,3.40
2022-07-29T22:57:30.664Z,3.30
2022-07-29T22:59:57.236Z,3.50
2022-07-29T23:02:23.786Z,3.50
2022-07-29T23:04:50.285Z,3.50
2022-07-29T23:07:17.551Z,3.47
2022-07-29T23:09:44.118Z,3.47
2022-07-29T23:12:10.729Z,3.30
2022-07-29T23:14:37.656Z,3.65
2022-07-29T23:17:05.592Z,3.40
2022-07-29T23:19:32.233Z,3.60
2022-07-29T23:21:58.844Z,3.65
2022-07-29T23:24:25.453Z,3.40
2022-07-29T23:26:51.947Z,3.50
2022-07-29T23:29:18.478Z,3.83
2022-07-29T23:31:48.202Z,3.72
2022-07-29T23:34:14.906Z,3.15
2022-07-29T23:36:42.163Z,3.10
2022-07-29T23:39:13.196Z,3.15
2022-07-29T23:41:40.268Z,3.55
2022-07-29T23:44:07.199Z,3.38
2022-07-29T23:46:34.016Z,3.20
2022-07-29T23:49:00.758Z,3.28
2022-07-29T23:51:28.966Z,3.35
2022-07-29T23:53:55.931Z,3.72
2022-07-29T23:56:22.972Z,3.30
2022-07-29T23:58:49.503Z,3.33
